Time;durP1;ratioP1;P1;durP2;ratioP2;P2;SDS_P1;SDS_P2;PMS_P1;PMS_P2;Temp;Humidity;BMP_temperature;BMP_pressure;BME280_temperature;BME280_humidity;BME280_pressure;Samples;Min_cycle;Max_cycle;Signal;HPM_P1;HPM_P2
2021/01/02 00:00:38;;;;;;;38.67;26.73;;;;;;;;;;2082535;28;20168;-54
2021/01/02 00:01:40;;;;;;;40.47;27.87;;;;;;;;;;2090272;28;20182;-55
2021/01/02 00:02:43;;;;;;;46.13;29.10;;;;;;;;;;2082035;28;20184;-53
2021/01/02 00:03:46;;;;;;;44.50;31.30;;;;;;;;;;2078000;28;20188;-55
2021/01/02 00:04:50;;;;;;;48.13;30.50;;;;;;;;;;2082077;28;20712;-56
2021/01/02 00:06:07;;;;;;;41.40;27.43;;;;;;;;;;2077034;28;20181;-54
2021/01/02 00:07:07;;;;;;;44.50;29.40;;;;;;;;;;2079740;28;20315;-54
2021/01/02 00:08:19;;;;;;;46.30;30.07;;;;;;;;;;2085038;28;20196;-52
2021/01/02 00:09:21;;;;;;;44.77;29.20;;;;;;;;;;2071670;28;20200;-52
2021/01/02 00:10:23;;;;;;;48.33;29.40;;;;;;;;;;2078165;28;20310;-55
2021/01/02 00:11:50;;;;;;;42.17;29.30;;;;;;;;;;2086985;28;20186;-54
2021/01/02 00:12:53;;;;;;;52.23;30.50;;;;;;;;;;2083127;28;20516;-56
2021/01/02 00:14:11;;;;;;;49.03;30.67;;;;;;;;;;2088785;28;20175;-56
2021/01/02 00:15:17;;;;;;;48.23;31.10;;;;;;;;;;2081088;28;20187;-56
2021/01/02 00:16:36;;;;;;;45.35;30.70;;;;;;;;;;2079237;28;20210;-55
2021/01/02 00:17:55;;;;;;;50.30;30.97;;;;;;;;;;2088417;28;20187;-54
2021/01/02 00:19:03;;;;;;;43.57;29.23;;;;;;;;;;2083610;28;20203;-56
2021/01/02 00:20:03;;;;;;;47.70;31.43;;;;;;;;;;2075054;28;20185;-55
2021/01/02 00:21:09;;;;;;;47.33;32.37;;;;;;;;;;2076611;28;20176;-56
2021/01/02 00:22:10;;;;;;;49.03;32.27;;;;;;;;;;2090530;28;20175;-53
2021/01/02 00:23:20;;;;;;;51.10;32.30;;;;;;;;;;2079964;28;20668;-54
2021/01/02 00:24:47;;;;;;;49.60;32.97;;;;;;;;;;2082209;28;20204;-54
2021/01/02 00:25:55;;;;;;;54.37;34.53;;;;;;;;;;2080046;28;20192;-54
2021/01/02 00:27:19;;;;;;;52.90;33.10;;;;;;;;;;2088103;28;20672;-52
2021/01/02 00:28:22;;;;;;;51.37;34.20;;;;;;;;;;2055301;28;20221;-51
2021/01/02 00:29:23;;;;;;;53.60;34.10;;;;;;;;;;2087360;28;20204;-54
2021/01/02 00:30:40;;;;;;;53.30;34.50;;;;;;;;;;2090320;28;20266;-52
2021/01/02 00:31:54;;;;;;;55.57;34.80;;;;;;;;;;2080192;28;20179;-57
2021/01/02 00:33:03;;;;;;;54.10;34.47;;;;;;;;;;2068037;28;20788;-55
2021/01/02 00:34:03;;;;;;;54.70;34.83;;;;;;;;;;2079137;28;20181;-55
2021/01/02 00:35:05;;;;;;;56.63;34.53;;;;;;;;;;2084971;28;20183;-53
2021/01/02 00:36:09;;;;;;;58.30;36.67;;;;;;;;;;2091682;28;20198;-52
2021/01/02 00:37:16;;;;;;;56.30;35.93;;;;;;;;;;2083539;28;20687;-52
2021/01/02 00:38:17;;;;;;;60.87;37.83;;;;;;;;;;2087048;28;20232;-55
2021/01/02 00:39:43;;;;;;;59.57;36.33;;;;;;;;;;2082474;28;20219;-53
2021/01/02 00:40:44;;;;;;;59.63;36.13;;;;;;;;;;2077028;28;20241;-54
2021/01/02 00:41:45;;;;;;;52.43;35.47;;;;;;;;;;2091325;28;20166;-53
2021/01/02 00:42:47;;;;;;;58.03;37.93;;;;;;;;;;2086897;28;20184;-51
2021/01/02 00:43:49;;;;;;;59.20;37.73;;;;;;;;;;2081571;28;20203;-52
2021/01/02 00:44:50;;;;;;;61.87;38.30;;;;;;;;;;2069584;28;20271;-53
2021/01/02 00:45:50;;;;;;;58.43;39.70;;;;;;;;;;2081277;28;20214;-53
2021/01/02 00:46:50;;;;;;;64.77;39.83;;;;;;;;;;2087567;28;20188;-54
2021/01/02 00:47:51;;;;;;;60.63;38.47;;;;;;;;;;2080664;28;20183;-54
2021/01/02 00:48:55;;;;;;;59.13;39.03;;;;;;;;;;2075262;28;20180;-55
2021/01/02 00:49:56;;;;;;;62.80;39.83;;;;;;;;;;2081408;28;20648;-54
2021/01/02 00:51:00;;;;;;;65.53;37.03;;;;;;;;;;2089359;28;20415;-54
2021/01/02 00:52:05;;;;;;;60.77;38.33;;;;;;;;;;2081358;28;20168;-53
2021/01/02 00:53:19;;;;;;;66.73;40.23;;;;;;;;;;2073331;28;20731;-53
2021/01/02 00:54:34;;;;;;;64.23;41.00;;;;;;;;;;2071096;28;20176;-55
2021/01/02 00:55:42;;;;;;;66.53;39.83;;;;;;;;;;2074694;28;20176;-53
2021/01/02 00:57:00;;;;;;;66.90;39.97;;;;;;;;;;2066699;28;20206;-56
2021/01/02 00:58:19;;;;;;;64.57;39.77;;;;;;;;;;2069940;28;20684;-51
2021/01/02 00:59:53;;;;;;;66.63;39.90;;;;;;;;;;2083306;28;20554;-53
2021/01/02 01:00:57;;;;;;;66.40;38.50;;;;;;;;;;2075100;28;20161;-54
2021/01/02 01:02:16;;;;;;;71.57;40.83;;;;;;;;;;2080506;28;20188;-54
2021/01/02 01:03:16;;;;;;;65.80;39.93;;;;;;;;;;2081289;28;20270;-53
2021/01/02 01:04:31;;;;;;;63.23;41.17;;;;;;;;;;2085874;28;20175;-52
2021/01/02 01:05:32;;;;;;;64.73;39.23;;;;;;;;;;2089533;28;20693;-52
2021/01/02 01:06:36;;;;;;;63.37;40.07;;;;;;;;;;2079982;28;20176;-52
2021/01/02 01:07:37;;;;;;;67.73;40.77;;;;;;;;;;2081381;28;20181;-53
2021/01/02 01:08:42;;;;;;;62.70;40.17;;;;;;;;;;2087704;28;20203;-52
2021/01/02 01:09:45;;;;;;;67.60;40.27;;;;;;;;;;2081923;28;20637;-56
2021/01/02 01:10:45;;;;;;;62.03;39.23;;;;;;;;;;2089037;28;20183;-53
2021/01/02 01:11:50;;;;;;;64.13;40.00;;;;;;;;;;2089128;28;20576;-57
2021/01/02 01:12:56;;;;;;;67.80;41.73;;;;;;;;;;2086013;28;20186;-57
2021/01/02 01:13:56;;;;;;;63.83;40.50;;;;;;;;;;2089552;28;20179;-57
2021/01/02 01:14:56;;;;;;;68.57;41.00;;;;;;;;;;2090354;28;20179;-58
2021/01/02 01:15:56;;;;;;;66.73;38.97;;;;;;;;;;2081438;28;20668;-57
2021/01/02 01:17:00;;;;;;;66.80;40.57;;;;;;;;;;2072833;28;20205;-56
2021/01/02 01:18:02;;;;;;;67.93;39.93;;;;;;;;;;2083111;28;20175;-53
2021/01/02 01:19:03;;;;;;;66.47;39.83;;;;;;;;;;2088431;28;20284;-56
2021/01/02 01:20:03;;;;;;;68.53;42.10;;;;;;;;;;2083242;28;20179;-56
2021/01/02 01:21:06;;;;;;;67.30;41.07;;;;;;;;;;2091277;28;20183;-52
2021/01/02 01:22:09;;;;;;;67.13;43.17;;;;;;;;;;2087776;28;20286;-54
2021/01/02 01:23:28;;;;;;;66.20;41.00;;;;;;;;;;2087165;28;20270;-53
2021/01/02 01:24:48;;;;;;;62.80;40.20;;;;;;;;;;2090848;28;20183;-54
2021/01/02 01:25:51;;;;;;;69.13;40.77;;;;;;;;;;2082682;28;20203;-52
2021/01/02 01:27:24;;;;;;;66.10;41.20;;;;;;;;;;2080203;28;20168;-52
2021/01/02 01:28:25;;;;;;;62.70;38.53;;;;;;;;;;2058761;28;20201;-56
2021/01/02 01:29:44;;;;;;;67.57;39.97;;;;;;;;;;2069446;28;20212;-56
2021/01/02 01:30:46;;;;;;;66.50;39.80;;;;;;;;;;2084092;28;20184;-53
2021/01/02 01:31:46;;;;;;;62.67;39.47;;;;;;;;;;2083532;28;20168;-52
2021/01/02 01:32:58;;;;;;;62.73;38.90;;;;;;;;;;2091611;28;20211;-54
2021/01/02 01:33:58;;;;;;;61.67;38.53;;;;;;;;;;2089998;28;20586;-54
2021/01/02 01:35:00;;;;;;;67.53;40.70;;;;;;;;;;2091436;28;20183;-54
2021/01/02 01:36:01;;;;;;;63.47;38.40;;;;;;;;;;2090983;28;20179;-54
2021/01/02 01:37:08;;;;;;;65.73;38.37;;;;;;;;;;2090052;28;20286;-56
2021/01/02 01:38:11;;;;;;;55.97;35.20;;;;;;;;;;2089432;28;20179;-54
2021/01/02 01:39:11;;;;;;;61.90;38.53;;;;;;;;;;2091175;28;20301;-54
2021/01/02 01:40:12;;;;;;;63.13;37.90;;;;;;;;;;2091161;28;20667;-52
2021/01/02 01:41:16;;;;;;;61.07;38.83;;;;;;;;;;2091683;28;20202;-53
2021/01/02 01:42:17;;;;;;;63.70;40.23;;;;;;;;;;2091541;28;20176;-57
2021/01/02 01:43:26;;;;;;;63.47;38.60;;;;;;;;;;2091631;28;20258;-56
2021/01/02 01:44:29;;;;;;;60.70;39.03;;;;;;;;;;2083307;28;20243;-53
2021/01/02 01:45:39;;;;;;;63.70;38.57;;;;;;;;;;2088240;28;20184;-54
2021/01/02 01:46:50;;;;;;;60.87;37.63;;;;;;;;;;2089798;28;20694;-55
2021/01/02 01:48:06;;;;;;;62.27;38.00;;;;;;;;;;2087335;28;20259;-55
2021/01/02 01:49:10;;;;;;;61.30;38.47;;;;;;;;;;2086682;28;20267;-56
2021/01/02 01:50:40;;;;;;;61.37;38.50;;;;;;;;;;2091118;28;20248;-54
2021/01/02 01:51:59;;;;;;;60.07;36.37;;;;;;;;;;2057243;28;20248;-53
2021/01/02 01:53:18;;;;;;;57.70;37.07;;;;;;;;;;2058895;28;20179;-51
2021/01/02 01:54:37;;;;;;;59.60;35.27;;;;;;;;;;2088971;28;20199;-55
2021/01/02 01:55:52;;;;;;;56.57;35.70;;;;;;;;;;2083709;28;20180;-56
2021/01/02 01:56:55;;;;;;;56.57;35.77;;;;;;;;;;2086349;28;20230;-54
2021/01/02 01:58:09;;;;;;;55.47;36.37;;;;;;;;;;2090895;28;20246;-53
2021/01/02 01:59:15;;;;;;;63.43;35.93;;;;;;;;;;2091488;28;20195;-56
2021/01/02 02:00:16;;;;;;;54.90;35.80;;;;;;;;;;2091513;28;20194;-57
2021/01/02 02:01:22;;;;;;;58.43;35.80;;;;;;;;;;2089311;28;20701;-52
2021/01/02 02:02:41;;;;;;;56.63;36.73;;;;;;;;;;2089989;28;20195;-53
2021/01/02 02:03:47;;;;;;;55.30;36.10;;;;;;;;;;2085397;28;20254;-58
2021/01/02 02:05:07;;;;;;;56.57;34.70;;;;;;;;;;2091761;28;20544;-53
2021/01/02 02:06:12;;;;;;;53.87;34.23;;;;;;;;;;2079309;28;20183;-56
2021/01/02 02:07:16;;;;;;;58.87;38.63;;;;;;;;;;2080515;28;20180;-57
2021/01/02 02:08:16;;;;;;;54.80;36.07;;;;;;;;;;2090917;28;20190;-56
2021/01/02 02:09:21;;;;;;;55.63;35.80;;;;;;;;;;2093591;28;20215;-57
2021/01/02 02:10:28;;;;;;;54.07;34.30;;;;;;;;;;2091572;28;20183;-57
2021/01/02 02:11:34;;;;;;;53.10;35.07;;;;;;;;;;2088561;28;20172;-58
2021/01/02 02:12:35;;;;;;;56.00;34.47;;;;;;;;;;2092736;28;20262;-56
2021/01/02 02:13:42;;;;;;;55.43;35.47;;;;;;;;;;2092392;28;20175;-56
2021/01/02 02:14:58;;;;;;;54.10;34.43;;;;;;;;;;2093016;28;20156;-56
2021/01/02 02:15:58;;;;;;;53.43;34.83;;;;;;;;;;2088526;28;20244;-56
2021/01/02 02:17:02;;;;;;;53.27;34.90;;;;;;;;;;2093112;28;20203;-54
2021/01/02 02:18:07;;;;;;;55.90;34.30;;;;;;;;;;2088910;28;20242;-56
2021/01/02 02:19:16;;;;;;;54.40;34.53;;;;;;;;;;2093628;28;20194;-56
2021/01/02 02:20:22;;;;;;;50.93;34.10;;;;;;;;;;2094165;28;20294;-57
2021/01/02 02:21:26;;;;;;;54.80;32.30;;;;;;;;;;2084756;28;20168;-57
2021/01/02 02:22:27;;;;;;;49.97;32.70;;;;;;;;;;2078803;28;20271;-58
2021/01/02 02:23:40;;;;;;;51.13;32.77;;;;;;;;;;2092118;28;20532;-55
2021/01/02 02:24:42;;;;;;;52.47;32.10;;;;;;;;;;2093925;28;20182;-58
2021/01/02 02:25:50;;;;;;;49.57;33.40;;;;;;;;;;2094113;28;20230;-57
2021/01/02 02:26:52;;;;;;;52.33;32.60;;;;;;;;;;2093229;28;20631;-55
2021/01/02 02:27:53;;;;;;;50.57;33.13;;;;;;;;;;2093244;28;20206;-56
2021/01/02 02:28:53;;;;;;;51.47;33.67;;;;;;;;;;2094041;28;20176;-56
2021/01/02 02:30:05;;;;;;;47.80;33.63;;;;;;;;;;2094301;28;20179;-56
2021/01/02 02:31:07;;;;;;;52.23;33.50;;;;;;;;;;2092323;28;20195;-56
2021/01/02 02:32:08;;;;;;;52.63;34.73;;;;;;;;;;2091576;28;20183;-57
2021/01/02 02:33:11;;;;;;;54.83;34.27;;;;;;;;;;2089651;28;20307;-58
2021/01/02 02:34:12;;;;;;;51.03;33.73;;;;;;;;;;2091470;28;20176;-58
2021/01/02 02:35:19;;;;;;;49.53;32.50;;;;;;;;;;2090221;28;20175;-55
2021/01/02 02:36:20;;;;;;;51.43;33.90;;;;;;;;;;2093685;28;20176;-57
2021/01/02 02:37:20;;;;;;;53.17;33.47;;;;;;;;;;2084559;28;20266;-57
2021/01/02 02:38:21;;;;;;;51.43;33.90;;;;;;;;;;2085363;28;20176;-57
2021/01/02 02:39:21;;;;;;;52.70;33.63;;;;;;;;;;2091758;28;20286;-58
2021/01/02 02:40:23;;;;;;;49.07;32.43;;;;;;;;;;2094033;28;20207;-58
2021/01/02 02:41:26;;;;;;;51.00;32.90;;;;;;;;;;2092405;28;20524;-56
2021/01/02 02:42:29;;;;;;;51.57;31.83;;;;;;;;;;2089126;28;20183;-58
2021/01/02 02:43:30;;;;;;;52.50;33.30;;;;;;;;;;2091070;28;20171;-55
2021/01/02 02:44:32;;;;;;;51.53;32.73;;;;;;;;;;2081641;28;20169;-55
2021/01/02 02:45:33;;;;;;;50.53;32.83;;;;;;;;;;2081776;28;20738;-54
2021/01/02 02:46:37;;;;;;;51.13;33.80;;;;;;;;;;2088926;28;20172;-56
2021/01/02 02:47:38;;;;;;;48.07;33.07;;;;;;;;;;2073145;28;20263;-52
2021/01/02 02:48:44;;;;;;;50.60;31.67;;;;;;;;;;2078518;28;20615;-56
2021/01/02 02:49:47;;;;;;;50.63;33.43;;;;;;;;;;2082494;28;20152;-56
2021/01/02 02:50:49;;;;;;;46.90;30.87;;;;;;;;;;2088870;28;20187;-54
2021/01/02 02:52:14;;;;;;;48.20;32.37;;;;;;;;;;2088914;28;20254;-54
2021/01/02 02:53:15;;;;;;;47.10;31.77;;;;;;;;;;2086609;28;20164;-53
2021/01/02 02:54:16;;;;;;;47.77;31.87;;;;;;;;;;2089878;28;20244;-53
2021/01/02 02:55:16;;;;;;;50.73;32.40;;;;;;;;;;2087115;28;20691;-57
2021/01/02 02:56:17;;;;;;;49.57;32.87;;;;;;;;;;2087162;28;20267;-56
2021/01/02 02:57:18;;;;;;;47.90;31.70;;;;;;;;;;2087437;28;20690;-54
2021/01/02 02:58:19;;;;;;;52.97;33.27;;;;;;;;;;2076419;28;20638;-55
2021/01/02 02:59:19;;;;;;;46.87;31.73;;;;;;;;;;2078129;28;20189;-56
2021/01/02 03:00:19;;;;;;;48.17;31.93;;;;;;;;;;2089470;28;20203;-53
2021/01/02 03:01:20;;;;;;;51.17;32.50;;;;;;;;;;2085209;28;20256;-54
2021/01/02 03:02:20;;;;;;;50.57;33.37;;;;;;;;;;2082652;28;20222;-54
2021/01/02 03:03:21;;;;;;;49.00;33.13;;;;;;;;;;2087374;28;20271;-57
2021/01/02 03:04:21;;;;;;;49.40;32.83;;;;;;;;;;2084916;28;20233;-56
2021/01/02 03:05:21;;;;;;;53.27;34.40;;;;;;;;;;2078760;28;20184;-56
2021/01/02 03:06:22;;;;;;;53.30;33.57;;;;;;;;;;2081252;28;20168;-54
2021/01/02 03:07:23;;;;;;;55.63;32.67;;;;;;;;;;2089265;28;20187;-54
2021/01/02 03:08:24;;;;;;;53.03;33.60;;;;;;;;;;2084426;28;20226;-56
2021/01/02 03:09:24;;;;;;;50.83;32.77;;;;;;;;;;2089803;28;20286;-55
2021/01/02 03:10:25;;;;;;;52.80;33.20;;;;;;;;;;2091005;28;20258;-57
2021/01/02 03:11:25;;;;;;;54.47;32.47;;;;;;;;;;2088937;28;20654;-56
2021/01/02 03:12:26;;;;;;;52.43;34.40;;;;;;;;;;2090055;28;20201;-57
2021/01/02 03:13:26;;;;;;;49.57;33.10;;;;;;;;;;2081697;28;20176;-58
2021/01/02 03:14:26;;;;;;;52.70;34.27;;;;;;;;;;2081301;28;20172;-55
2021/01/02 03:15:26;;;;;;;57.27;33.93;;;;;;;;;;2087771;28;20238;-54
2021/01/02 03:16:27;;;;;;;52.23;33.63;;;;;;;;;;2083902;28;20176;-56
2021/01/02 03:17:27;;;;;;;58.60;35.03;;;;;;;;;;2082082;28;20211;-55
2021/01/02 03:18:27;;;;;;;54.73;35.37;;;;;;;;;;2087738;28;22239;-53
2021/01/02 03:19:28;;;;;;;55.03;35.33;;;;;;;;;;2089804;28;20199;-53
2021/01/02 03:20:30;;;;;;;52.93;34.90;;;;;;;;;;2086256;28;20185;-56
2021/01/02 03:21:30;;;;;;;55.70;35.50;;;;;;;;;;2088343;28;20175;-53
2021/01/02 03:22:30;;;;;;;50.03;32.53;;;;;;;;;;2085651;28;20175;-54
2021/01/02 03:23:39;;;;;;;53.50;34.10;;;;;;;;;;2088052;28;20543;-54
2021/01/02 03:24:39;;;;;;;52.07;33.13;;;;;;;;;;2089613;28;20267;-56
2021/01/02 03:25:40;;;;;;;56.83;34.03;;;;;;;;;;2074736;28;20172;-56
2021/01/02 03:26:40;;;;;;;53.63;34.47;;;;;;;;;;2076627;28;20172;-55
2021/01/02 03:27:40;;;;;;;54.87;34.17;;;;;;;;;;2084251;28;20209;-55
2021/01/02 03:28:48;;;;;;;53.13;33.73;;;;;;;;;;2082783;28;20204;-56
2021/01/02 03:29:48;;;;;;;54.43;33.93;;;;;;;;;;2081401;28;20254;-51
2021/01/02 03:30:49;;;;;;;53.33;35.40;;;;;;;;;;2082709;28;20561;-53
2021/01/02 03:31:49;;;;;;;48.50;32.07;;;;;;;;;;2089289;28;20175;-52
2021/01/02 03:32:49;;;;;;;49.77;34.03;;;;;;;;;;2090046;28;20686;-53
2021/01/02 03:33:49;;;;;;;51.97;34.23;;;;;;;;;;2088111;28;20167;-53
2021/01/02 03:34:50;;;;;;;54.97;35.90;;;;;;;;;;2080866;28;20572;-52
2021/01/02 03:35:50;;;;;;;56.00;34.87;;;;;;;;;;2079660;28;20630;-53
2021/01/02 03:36:50;;;;;;;54.60;36.37;;;;;;;;;;2089862;28;20818;-52
2021/01/02 03:37:50;;;;;;;58.20;35.57;;;;;;;;;;2087159;28;20192;-55
2021/01/02 03:38:58;;;;;;;58.57;36.93;;;;;;;;;;2089161;28;20176;-55
2021/01/02 03:39:58;;;;;;;51.47;34.30;;;;;;;;;;2086465;28;20180;-52
2021/01/02 03:40:58;;;;;;;58.33;35.67;;;;;;;;;;2087634;28;20636;-53
2021/01/02 03:41:58;;;;;;;53.37;35.23;;;;;;;;;;2083299;28;20180;-55
2021/01/02 03:42:59;;;;;;;56.33;35.90;;;;;;;;;;2083592;28;20187;-55
2021/01/02 03:44:00;;;;;;;55.07;35.30;;;;;;;;;;2086227;28;20184;-54
2021/01/02 03:45:00;;;;;;;54.50;35.17;;;;;;;;;;2081075;28;20168;-53
2021/01/02 03:46:00;;;;;;;57.33;35.77;;;;;;;;;;2077205;28;20557;-54
2021/01/02 03:47:10;;;;;;;58.67;36.00;;;;;;;;;;2088642;28;20184;-53
2021/01/02 03:48:10;;;;;;;59.00;35.73;;;;;;;;;;2076631;28;20223;-52
2021/01/02 03:49:10;;;;;;;55.53;35.33;;;;;;;;;;2080005;28;20200;-55
2021/01/02 03:50:11;;;;;;;57.80;35.80;;;;;;;;;;2085357;28;20174;-53
2021/01/02 03:51:11;;;;;;;55.50;34.37;;;;;;;;;;2086267;28;20172;-52
2021/01/02 03:52:12;;;;;;;59.93;37.47;;;;;;;;;;2088075;28;20213;-55
2021/01/02 03:53:13;;;;;;;58.63;36.57;;;;;;;;;;2086684;28;20211;-54
2021/01/02 03:54:13;;;;;;;55.43;34.77;;;;;;;;;;2089535;28;20540;-53
2021/01/02 03:55:13;;;;;;;58.50;37.20;;;;;;;;;;2088751;28;20294;-52
2021/01/02 03:56:13;;;;;;;59.07;37.83;;;;;;;;;;2089646;28;20252;-52
2021/01/02 03:57:14;;;;;;;63.90;37.07;;;;;;;;;;2088061;28;20207;-52
2021/01/02 03:58:14;;;;;;;59.57;37.17;;;;;;;;;;2085104;28;20180;-52
2021/01/02 03:59:14;;;;;;;59.07;38.73;;;;;;;;;;2086877;28;20221;-52
2021/01/02 04:00:15;;;;;;;59.87;38.47;;;;;;;;;;2079714;28;20275;-54
2021/01/02 04:01:15;;;;;;;59.00;37.10;;;;;;;;;;2075702;28;20260;-53
2021/01/02 04:02:15;;;;;;;62.37;37.17;;;;;;;;;;2085482;28;20232;-54
2021/01/02 04:03:15;;;;;;;60.03;37.77;;;;;;;;;;2088674;28;20175;-54
2021/01/02 04:04:16;;;;;;;64.07;36.23;;;;;;;;;;2089649;28;20174;-55
2021/01/02 04:05:16;;;;;;;59.63;37.00;;;;;;;;;;2088730;28;20259;-56
2021/01/02 04:06:26;;;;;;;62.23;39.00;;;;;;;;;;2089795;28;20167;-60
2021/01/02 04:07:26;;;;;;;60.97;38.47;;;;;;;;;;2081617;28;20187;-55
2021/01/02 04:08:26;;;;;;;57.27;38.10;;;;;;;;;;2087777;28;20633;-53
2021/01/02 04:09:26;;;;;;;63.07;39.07;;;;;;;;;;2070792;28;20204;-53
2021/01/02 04:10:27;;;;;;;65.90;39.23;;;;;;;;;;2071975;28;20252;-54
2021/01/02 04:11:27;;;;;;;65.73;39.57;;;;;;;;;;2087496;28;20694;-55
2021/01/02 04:12:27;;;;;;;67.73;40.23;;;;;;;;;;2076039;28;20172;-54
2021/01/02 04:13:27;;;;;;;66.20;40.07;;;;;;;;;;2079661;28;20246;-57
2021/01/02 04:14:27;;;;;;;65.23;38.77;;;;;;;;;;2091461;28;20190;-54
2021/01/02 04:15:28;;;;;;;64.03;38.07;;;;;;;;;;2089613;28;20205;-53
2021/01/02 04:16:31;;;;;;;69.23;41.07;;;;;;;;;;2087644;28;20640;-56
2021/01/02 04:17:31;;;;;;;59.80;38.47;;;;;;;;;;2087283;28;20199;-53
2021/01/02 04:18:32;;;;;;;57.60;36.80;;;;;;;;;;2088465;28;20777;-55
2021/01/02 04:19:32;;;;;;;54.07;35.97;;;;;;;;;;2089205;28;20195;-56
2021/01/02 04:20:33;;;;;;;62.30;38.17;;;;;;;;;;2088010;28;20199;-53
2021/01/02 04:21:34;;;;;;;63.67;40.30;;;;;;;;;;2080822;28;20181;-54
2021/01/02 04:22:34;;;;;;;59.77;37.23;;;;;;;;;;2076808;28;20183;-52
2021/01/02 04:23:34;;;;;;;65.17;37.33;;;;;;;;;;2087929;28;20249;-53
2021/01/02 04:24:34;;;;;;;56.47;36.80;;;;;;;;;;2089458;28;20263;-55
2021/01/02 04:25:35;;;;;;;60.63;37.83;;;;;;;;;;2089625;28;20172;-54
2021/01/02 04:26:35;;;;;;;60.07;36.90;;;;;;;;;;2075592;28;20185;-52
2021/01/02 04:27:35;;;;;;;65.13;37.33;;;;;;;;;;2072705;28;20208;-54
2021/01/02 04:28:35;;;;;;;57.93;35.97;;;;;;;;;;2082136;28;20187;-53
2021/01/02 04:29:36;;;;;;;60.83;36.37;;;;;;;;;;2088167;28;20754;-52
2021/01/02 04:30:36;;;;;;;58.13;34.20;;;;;;;;;;2089060;28;20171;-52
2021/01/02 04:31:37;;;;;;;59.00;35.63;;;;;;;;;;2073169;28;20612;-55
2021/01/02 04:32:37;;;;;;;63.80;36.50;;;;;;;;;;2071851;28;20191;-55
2021/01/02 04:33:38;;;;;;;53.73;34.20;;;;;;;;;;2080217;28;20179;-54
2021/01/02 04:34:38;;;;;;;52.33;32.43;;;;;;;;;;2081489;28;20605;-54
2021/01/02 04:35:38;;;;;;;54.93;34.07;;;;;;;;;;2089056;28;20238;-56
2021/01/02 04:36:38;;;;;;;52.77;34.17;;;;;;;;;;2088829;28;20556;-55
2021/01/02 04:37:41;;;;;;;49.07;32.97;;;;;;;;;;2087612;28;20588;-53
2021/01/02 04:38:42;;;;;;;51.27;32.93;;;;;;;;;;2088847;28;20176;-55
2021/01/02 04:39:42;;;;;;;56.50;34.97;;;;;;;;;;2088554;28;20182;-53
2021/01/02 04:40:42;;;;;;;53.23;32.47;;;;;;;;;;2089136;28;20179;-52
2021/01/02 04:41:42;;;;;;;52.93;32.90;;;;;;;;;;2088020;28;20195;-52
2021/01/02 04:42:43;;;;;;;54.00;34.00;;;;;;;;;;2089699;28;20313;-54
2021/01/02 04:43:46;;;;;;;50.27;31.90;;;;;;;;;;2087396;28;20202;-52
2021/01/02 04:44:48;;;;;;;51.20;33.20;;;;;;;;;;2088490;28;20203;-55
2021/01/02 04:45:48;;;;;;;55.00;33.00;;;;;;;;;;2084066;28;20233;-52
2021/01/02 04:46:49;;;;;;;58.37;34.60;;;;;;;;;;2078832;28;20227;-53
2021/01/02 04:47:50;;;;;;;53.50;34.53;;;;;;;;;;2079277;28;20185;-53
2021/01/02 04:48:50;;;;;;;55.10;33.60;;;;;;;;;;2076004;28;20181;-54
2021/01/02 04:49:51;;;;;;;54.23;35.10;;;;;;;;;;2082487;28;20180;-52
2021/01/02 04:50:51;;;;;;;51.90;33.00;;;;;;;;;;2090313;28;20541;-55
2021/01/02 04:51:58;;;;;;;54.53;32.97;;;;;;;;;;2089826;28;20183;-53
2021/01/02 04:52:59;;;;;;;51.33;33.13;;;;;;;;;;2086369;28;20172;-52
2021/01/02 04:54:00;;;;;;;52.63;34.20;;;;;;;;;;2091432;28;20551;-53
2021/01/02 04:55:02;;;;;;;51.00;34.07;;;;;;;;;;2091357;28;20574;-56
2021/01/02 04:56:05;;;;;;;51.53;34.27;;;;;;;;;;2088695;28;20187;-55
2021/01/02 04:57:05;;;;;;;51.77;32.30;;;;;;;;;;2082258;28;20262;-55
2021/01/02 04:58:07;;;;;;;50.33;32.20;;;;;;;;;;2079574;28;20263;-55
2021/01/02 04:59:10;;;;;;;49.50;32.70;;;;;;;;;;2081428;28;20275;-56
2021/01/02 05:00:11;;;;;;;52.83;32.83;;;;;;;;;;2084600;28;20583;-54
2021/01/02 05:01:12;;;;;;;53.73;33.40;;;;;;;;;;2091247;28;20176;-55
2021/01/02 05:02:13;;;;;;;55.27;33.90;;;;;;;;;;2091141;28;20536;-54
2021/01/02 05:03:13;;;;;;;56.40;34.60;;;;;;;;;;2086632;28;20175;-52
2021/01/02 05:04:14;;;;;;;46.23;31.17;;;;;;;;;;2086538;28;20251;-53
2021/01/02 05:05:15;;;;;;;53.43;34.27;;;;;;;;;;2091270;28;20639;-53
2021/01/02 05:06:21;;;;;;;52.30;32.23;;;;;;;;;;2081201;28;20603;-56
2021/01/02 05:07:22;;;;;;;51.27;33.03;;;;;;;;;;2077228;28;20179;-56
2021/01/02 05:08:23;;;;;;;52.50;33.20;;;;;;;;;;2087671;28;20215;-57
2021/01/02 05:09:24;;;;;;;50.97;32.37;;;;;;;;;;2078932;28;20903;-54
2021/01/02 05:10:24;;;;;;;54.67;33.63;;;;;;;;;;2081573;28;20581;-54
2021/01/02 05:11:25;;;;;;;54.53;33.80;;;;;;;;;;2087689;28;21121;-53
2021/01/02 05:12:34;;;;;;;54.70;32.40;;;;;;;;;;2085126;28;20172;-54
2021/01/02 05:13:35;;;;;;;55.23;33.00;;;;;;;;;;2085081;28;20234;-55
2021/01/02 05:14:55;;;;;;;60.57;36.93;;;;;;;;;;2083347;28;20176;-55
2021/01/02 05:15:56;;;;;;;62.43;35.73;;;;;;;;;;2079829;28;20573;-56
2021/01/02 05:16:56;;;;;;;57.53;34.83;;;;;;;;;;2082118;28;20200;-57
2021/01/02 05:17:57;;;;;;;58.00;36.57;;;;;;;;;;2087579;28;20183;-57
2021/01/02 05:18:58;;;;;;;52.47;34.37;;;;;;;;;;2082640;28;20164;-56
2021/01/02 05:20:00;;;;;;;57.70;35.13;;;;;;;;;;2079178;28;20169;-57
2021/01/02 05:21:06;;;;;;;56.60;35.87;;;;;;;;;;2084178;28;20199;-56
2021/01/02 05:22:10;;;;;;;56.10;34.80;;;;;;;;;;2093081;28;20179;-57
2021/01/02 05:23:10;;;;;;;57.20;36.47;;;;;;;;;;2076961;28;20177;-57
2021/01/02 05:24:19;;;;;;;50.37;34.17;;;;;;;;;;2080276;28;20172;-57
2021/01/02 05:25:22;;;;;;;56.23;34.73;;;;;;;;;;2092573;28;20660;-56
2021/01/02 05:26:22;;;;;;;58.07;36.40;;;;;;;;;;2079847;28;20214;-57
2021/01/02 05:27:30;;;;;;;55.80;34.00;;;;;;;;;;2081233;28;20184;-56
2021/01/02 05:28:30;;;;;;;55.67;35.67;;;;;;;;;;2091786;28;20206;-58
2021/01/02 05:29:31;;;;;;;60.53;35.97;;;;;;;;;;2092403;28;20196;-57
2021/01/02 05:30:32;;;;;;;59.07;36.40;;;;;;;;;;2076028;28;20235;-57
2021/01/02 05:31:32;;;;;;;61.20;37.83;;;;;;;;;;2076828;28;20187;-57
2021/01/02 05:32:33;;;;;;;59.23;37.97;;;;;;;;;;2088036;28;20171;-58
2021/01/02 05:33:33;;;;;;;63.70;37.70;;;;;;;;;;2077313;28;20567;-56
2021/01/02 05:34:33;;;;;;;65.63;37.50;;;;;;;;;;2083987;28;20637;-57
2021/01/02 05:35:33;;;;;;;60.20;36.33;;;;;;;;;;2092834;28;20570;-57
2021/01/02 05:36:34;;;;;;;61.80;37.87;;;;;;;;;;2077250;28;20181;-56
2021/01/02 05:37:34;;;;;;;59.77;37.07;;;;;;;;;;2083380;28;20716;-56
2021/01/02 05:38:38;;;;;;;61.63;37.00;;;;;;;;;;2083957;28;20168;-57
2021/01/02 05:40:45;;;;;;;57.27;37.03;;;;;;;;;;2076851;28;20250;-52
2021/01/02 05:41:55;;;;;;;56.73;36.20;;;;;;;;;;2083533;28;20191;-50
2021/01/02 05:42:56;;;;;;;61.67;36.87;;;;;;;;;;2083565;28;20220;-53
2021/01/02 05:44:11;;;;;;;56.67;36.13;;;;;;;;;;2069893;28;20177;-50
2021/01/02 05:45:14;;;;;;;55.17;34.10;;;;;;;;;;2074663;28;20169;-50
2021/01/02 05:46:15;;;;;;;57.93;36.70;;;;;;;;;;2080006;28;20164;-51
2021/01/02 05:47:29;;;;;;;60.90;36.97;;;;;;;;;;2079369;28;20204;-53
2021/01/02 05:48:29;;;;;;;52.07;34.87;;;;;;;;;;2081887;28;20175;-51
2021/01/02 05:49:32;;;;;;;55.53;36.00;;;;;;;;;;2082960;28;20176;-51
2021/01/02 05:50:34;;;;;;;59.57;36.70;;;;;;;;;;2090807;28;20261;-50
2021/01/02 05:51:38;;;;;;;57.23;35.30;;;;;;;;;;2083798;28;20168;-51
2021/01/02 05:52:44;;;;;;;56.57;35.70;;;;;;;;;;2075660;28;20173;-50
2021/01/02 05:53:44;;;;;;;57.73;36.13;;;;;;;;;;2075293;28;20164;-50
2021/01/02 05:54:47;;;;;;;54.80;34.47;;;;;;;;;;2082685;28;20223;-50
2021/01/02 05:55:56;;;;;;;53.20;34.87;;;;;;;;;;2075544;28;20263;-50
2021/01/02 05:57:01;;;;;;;61.60;36.80;;;;;;;;;;2091235;28;20346;-50
2021/01/02 05:58:17;;;;;;;58.93;37.27;;;;;;;;;;2091323;28;20294;-49
2021/01/02 05:59:27;;;;;;;53.30;35.27;;;;;;;;;;2091048;28;20178;-49
2021/01/02 06:00:27;;;;;;;60.10;37.50;;;;;;;;;;2087100;28;20215;-50
2021/01/02 06:01:28;;;;;;;56.20;35.20;;;;;;;;;;2084094;28;20168;-49
2021/01/02 06:02:29;;;;;;;61.17;36.17;;;;;;;;;;2082325;28;20651;-50
2021/01/02 06:03:29;;;;;;;55.00;35.60;;;;;;;;;;2090302;28;20266;-49
2021/01/02 06:04:30;;;;;;;58.87;36.33;;;;;;;;;;2089412;28;20156;-50
2021/01/02 06:05:30;;;;;;;61.27;36.73;;;;;;;;;;2091624;28;20259;-49
2021/01/02 06:06:30;;;;;;;65.90;38.63;;;;;;;;;;2090225;28;20510;-56
2021/01/02 06:07:31;;;;;;;64.50;36.87;;;;;;;;;;2090740;28;20194;-53
2021/01/02 06:08:39;;;;;;;58.47;36.77;;;;;;;;;;2091266;28;20199;-53
2021/01/02 06:09:39;;;;;;;64.10;35.93;;;;;;;;;;2088545;28;20164;-53
2021/01/02 06:10:39;;;;;;;56.20;35.83;;;;;;;;;;2091879;28;20188;-49
2021/01/02 06:11:43;;;;;;;60.10;36.93;;;;;;;;;;2091551;28;20578;-51
2021/01/02 06:12:43;;;;;;;58.87;35.77;;;;;;;;;;2084650;28;20172;-52